createdAt,value
2017-02-22T00:00:10.151Z,5.23
2017-02-22T00:01:10.808Z,5.2
2017-02-22T00:02:10.747Z,5.36
2017-02-22T00:03:10.738Z,5.34
2017-02-22T00:04:10.722Z,5.41
2017-02-22T00:05:10.706Z,5.42
2017-02-22T00:06:10.307Z,5.41
2017-02-22T00:07:10.685Z,5.37
2017-02-22T00:08:10.277Z,5.44
2017-02-22T00:09:10.678Z,5.48
2017-02-22T00:10:10.644Z,5.51
2017-02-22T00:11:10.640Z,5.52
2017-02-22T00:12:10.627Z,5.57
2017-02-22T00:13:10.619Z,5.63
2017-02-22T00:14:10.593Z,5.64
2017-02-22T00:15:10.193Z,5.59
2017-02-22T00:16:10.170Z,5.75
2017-02-22T00:17:10.556Z,5.73
2017-02-22T00:18:10.545Z,5.7
2017-02-22T00:19:10.548Z,5.7
2017-02-22T00:20:10.133Z,5.75
2017-02-22T00:21:10.113Z,5.7
2017-02-22T00:22:10.500Z,5.69
2017-02-22T00:23:10.090Z,5.72
2017-02-22T00:24:10.071Z,5.67
2017-02-22T00:25:10.454Z,5.64
2017-02-22T00:26:10.436Z,5.62
2017-02-22T00:27:10.428Z,5.6
2017-02-22T00:28:10.417Z,5.63
2017-02-22T00:29:10.011Z,5.62
2017-02-22T00:30:09.988Z,5.6
2017-02-22T00:31:10.384Z,5.63
2017-02-22T00:32:10.364Z,5.66
2017-02-22T00:33:10.359Z,5.62
2017-02-22T00:34:09.937Z,5.7
2017-02-22T00:35:10.336Z,5.66
2017-02-22T00:36:09.917Z,5.6
2017-02-22T00:37:10.302Z,5.63
2017-02-22T00:38:09.897Z,5.64
2017-02-22T00:39:09.886Z,5.6
2017-02-22T00:40:10.266Z,5.62
2017-02-22T00:41:09.858Z,5.7
2017-02-22T00:42:10.235Z,5.7
2017-02-22T00:43:10.231Z,5.72
2017-02-22T00:44:10.241Z,5.75
2017-02-22T00:45:09.809Z,5.7
2017-02-22T00:46:09.794Z,5.69
2017-02-22T00:47:09.773Z,5.7
2017-02-22T00:48:09.775Z,5.73
2017-02-22T00:49:10.149Z,5.69
2017-02-22T00:50:10.139Z,5.69
2017-02-22T00:51:10.132Z,5.7
2017-02-22T00:52:10.106Z,5.66
2017-02-22T00:53:10.123Z,5.64
2017-02-22T00:54:10.089Z,5.59
2017-02-22T00:55:09.687Z,5.66
2017-02-22T00:56:09.658Z,5.6
2017-02-22T00:57:09.662Z,5.57
2017-02-22T00:58:09.637Z,5.62
2017-02-22T00:59:10.029Z,5.6
2017-02-22T01:00:10.010Z,5.63
2017-02-22T01:01:10.017Z,5.63
2017-02-22T01:02:09.584Z,5.66
2017-02-22T01:03:09.976Z,5.6
2017-02-22T01:04:09.965Z,5.52
2017-02-22T01:05:09.954Z,5.59
2017-02-22T01:06:09.934Z,5.57
2017-02-22T01:07:09.920Z,5.57
2017-02-22T01:08:09.909Z,5.64
2017-02-22T01:09:09.902Z,5.62
2017-02-22T01:10:09.882Z,5.7
2017-02-22T01:11:09.884Z,5.69
2017-02-22T01:12:09.862Z,5.72
2017-02-22T01:13:09.843Z,5.7
2017-02-22T01:14:09.437Z,5.77
2017-02-22T01:15:09.424Z,5.72
2017-02-22T01:16:09.817Z,5.75
2017-02-22T01:17:09.807Z,5.77
2017-02-22T01:18:09.803Z,5.7
2017-02-22T01:19:09.779Z,5.7
2017-02-22T01:20:09.376Z,5.73
2017-02-22T01:21:09.757Z,5.75
2017-02-22T01:22:09.732Z,5.72
2017-02-22T01:23:09.720Z,5.72
2017-02-22T01:24:09.709Z,5.73
2017-02-22T01:25:09.694Z,5.73
2017-02-22T01:26:09.685Z,5.73
2017-02-22T01:27:09.668Z,5.75
2017-02-22T01:28:09.664Z,5.72
2017-02-22T01:29:09.252Z,5.73
2017-02-22T01:30:09.236Z,5.73
2017-02-22T01:31:09.621Z,5.75
2017-02-22T01:32:09.212Z,5.69
2017-02-22T01:33:09.599Z,5.75
2017-02-22T01:34:08.831Z,5.73
2017-02-22T01:35:09.571Z,5.77
2017-02-22T01:36:09.553Z,5.73
2017-02-22T01:37:09.544Z,5.81
2017-02-22T01:38:09.529Z,5.77
2017-02-22T01:39:09.532Z,5.81
2017-02-22T01:40:09.120Z,5.72
2017-02-22T01:41:09.507Z,5.78
2017-02-22T01:42:09.499Z,5.75
2017-02-22T01:43:09.482Z,5.75
2017-02-22T01:44:09.456Z,5.84
2017-02-22T01:45:09.440Z,5.78
2017-02-22T01:46:09.436Z,5.75
2017-02-22T01:47:09.422Z,5.8
2017-02-22T01:48:09.404Z,5.78
2017-02-22T01:49:09.407Z,5.73
2017-02-22T01:50:09.385Z,5.81
2017-02-22T01:51:09.365Z,5.73
2017-02-22T01:52:09.353Z,5.78
2017-02-22T01:53:09.341Z,5.81
2017-02-22T01:54:09.334Z,5.87
2017-02-22T01:55:09.321Z,5.88
2017-02-22T01:56:08.908Z,5.8
2017-02-22T01:57:09.292Z,5.78
2017-02-22T01:58:09.293Z,5.89
2017-02-22T01:59:09.268Z,5.88
2017-02-22T02:00:09.253Z,5.88
2017-02-22T02:01:09.248Z,5.88
2017-02-22T02:02:08.835Z,5.89
2017-02-22T02:03:09.222Z,5.95
2017-02-22T02:04:09.207Z,5.88
2017-02-22T02:05:09.199Z,5.96
2017-02-22T02:06:09.191Z,5.96
2017-02-22T02:07:09.171Z,5.92
2017-02-22T02:08:09.152Z,5.98
2017-02-22T02:09:08.758Z,5.96
2017-02-22T02:10:09.132Z,5.98
2017-02-22T02:11:09.139Z,5.96
2017-02-22T02:12:09.116Z,6.03
2017-02-22T02:13:09.107Z,6.05
2017-02-22T02:14:09.106Z,6.07
2017-02-22T02:15:09.071Z,6.05
2017-02-22T02:16:09.066Z,6.2
2017-02-22T02:17:09.047Z,6.06
2017-02-22T02:18:08.639Z,6.15
2017-02-22T02:19:09.019Z,6.13
2017-02-22T02:20:08.607Z,6.14
2017-02-22T02:21:09.001Z,6.13
2017-02-22T02:22:08.986Z,6.15
2017-02-22T02:23:08.968Z,6.17
2017-02-22T02:24:08.962Z,6.17
2017-02-22T02:25:08.947Z,6.18
2017-02-22T02:26:08.936Z,6.24
2017-02-22T02:27:08.934Z,6.2
2017-02-22T02:28:08.925Z,6.28
2017-02-22T02:29:08.900Z,6.24
2017-02-22T02:30:08.489Z,6.28
2017-02-22T02:31:08.870Z,6.21
2017-02-22T02:32:08.491Z,6.2
2017-02-22T02:33:08.847Z,6.25
2017-02-22T02:34:08.846Z,6.2
2017-02-22T02:35:08.830Z,6.2
2017-02-22T02:36:08.838Z,6.21
2017-02-22T02:37:08.810Z,6.25
2017-02-22T02:38:08.801Z,6.29
2017-02-22T02:39:08.775Z,6.28
2017-02-22T02:40:08.777Z,6.33
2017-02-22T02:41:08.755Z,6.33
2017-02-22T02:42:08.345Z,6.31
2017-02-22T02:43:08.727Z,6.29
2017-02-22T02:44:08.719Z,6.25
2017-02-22T02:45:08.299Z,6.28
2017-02-22T02:46:08.692Z,6.33
2017-02-22T02:47:08.280Z,6.26
2017-02-22T02:48:08.663Z,6.33
2017-02-22T02:49:08.650Z,6.33
2017-02-22T02:50:37.608Z,6.33
2017-02-22T02:51:08.630Z,6.37
2017-02-22T02:52:08.633Z,6.37
2017-02-22T02:53:08.615Z,6.37
2017-02-22T02:54:08.598Z,6.39
2017-02-22T02:55:08.588Z,6.42
2017-02-22T02:56:08.182Z,6.42
2017-02-22T02:57:08.567Z,6.39
2017-02-22T02:58:08.556Z,6.42
2017-02-22T02:59:08.532Z,6.42
2017-02-22T03:00:08.527Z,6.43
2017-02-22T03:01:08.519Z,6.47
2017-02-22T03:02:08.498Z,6.47
2017-02-22T03:03:08.484Z,6.44
2017-02-22T03:04:08.476Z,6.43
2017-02-22T03:05:08.462Z,6.52
2017-02-22T03:06:08.457Z,6.43
2017-02-22T03:07:08.063Z,6.47
2017-02-22T03:08:08.434Z,6.46
2017-02-22T03:09:08.412Z,6.54
2017-02-22T03:10:08.399Z,6.55
2017-02-22T03:11:08.386Z,6.61
2017-02-22T03:12:08.377Z,6.55
2017-02-22T03:13:08.365Z,6.52
2017-02-22T03:14:08.353Z,6.52
2017-02-22T03:15:07.939Z,6.58
2017-02-22T03:16:08.330Z,6.58
2017-02-22T03:17:08.324Z,6.57
2017-02-22T03:18:08.304Z,6.57
2017-02-22T03:19:08.298Z,6.58
2017-02-22T03:20:08.285Z,6.67
2017-02-22T03:21:08.287Z,6.65
2017-02-22T03:22:08.268Z,6.6
2017-02-22T03:23:08.245Z,6.6
2017-02-22T03:24:08.243Z,6.67
2017-02-22T03:25:07.828Z,6.64
2017-02-22T03:26:08.223Z,6.72
2017-02-22T03:27:08.203Z,6.62
2017-02-22T03:28:08.200Z,6.64
2017-02-22T03:29:08.180Z,6.68
2017-02-22T03:30:08.168Z,6.68
2017-02-22T03:31:08.155Z,6.64
2017-02-22T03:32:07.757Z,6.67
2017-02-22T03:33:08.124Z,6.75
2017-02-22T03:34:08.145Z,6.72
2017-02-22T03:35:08.106Z,6.73
2017-02-22T03:36:08.093Z,6.72
2017-02-22T03:37:08.085Z,6.78
2017-02-22T03:38:08.069Z,6.8
2017-02-22T03:39:08.070Z,6.7
2017-02-22T03:40:07.650Z,6.8
2017-02-22T03:41:08.039Z,6.72
2017-02-22T03:42:07.622Z,6.72
2017-02-22T03:43:07.614Z,6.75
2017-02-22T03:44:08.028Z,6.7
2017-02-22T03:45:07.995Z,6.82
2017-02-22T03:46:07.986Z,6.76
2017-02-22T03:47:07.960Z,6.83
2017-02-22T03:48:07.956Z,6.79
2017-02-22T03:49:07.935Z,6.78
2017-02-22T03:50:07.923Z,6.78
2017-02-22T03:51:07.926Z,6.82
2017-02-22T03:52:07.907Z,6.75
2017-02-22T03:53:07.908Z,6.82
2017-02-22T03:54:07.888Z,6.78
2017-02-22T03:55:07.864Z,6.8
2017-02-22T03:56:07.464Z,6.75
2017-02-22T03:57:07.879Z,6.94
2017-02-22T03:58:07.833Z,6.86
2017-02-22T03:59:07.816Z,6.86
2017-02-22T04:00:07.413Z,6.8
2017-02-22T04:01:07.970Z,6.83
2017-02-22T04:02:07.802Z,6.8
2017-02-22T04:03:07.782Z,6.85
2017-02-22T04:04:07.997Z,6.88
2017-02-22T04:05:07.361Z,6.93
2017-02-22T04:06:07.358Z,6.93
2017-02-22T04:07:07.951Z,6.91
2017-02-22T04:08:07.719Z,6.91
2017-02-22T04:09:07.715Z,6.95
2017-02-22T04:10:07.621Z,6.91
2017-02-22T04:11:07.682Z,6.9
2017-02-22T04:12:07.687Z,6.94
2017-02-22T04:13:08.467Z,6.9
2017-02-22T04:14:07.654Z,6.93
2017-02-22T04:15:07.644Z,6.98
2017-02-22T04:16:07.921Z,7.03
2017-02-22T04:17:07.608Z,6.95
2017-02-22T04:18:07.622Z,7
2017-02-22T04:19:07.591Z,7.01
2017-02-22T04:20:07.217Z,7.03
2017-02-22T04:21:07.582Z,7.04
2017-02-22T04:22:07.552Z,6.98
2017-02-22T04:23:07.544Z,7.03
2017-02-22T04:24:07.534Z,7.08
2017-02-22T04:25:07.125Z,7.04
2017-02-22T04:26:07.508Z,7.05
2017-02-22T04:27:07.500Z,7.11
2017-02-22T04:28:07.095Z,7.03
2017-02-22T04:29:07.486Z,7.11
2017-02-22T04:30:07.490Z,7.21
2017-02-22T04:31:07.445Z,7.12
2017-02-22T04:32:07.656Z,7.01
2017-02-22T04:33:07.438Z,7.21
2017-02-22T04:34:07.418Z,7.11
2017-02-22T04:35:07.702Z,7.16
2017-02-22T04:36:07.390Z,7.12
2017-02-22T04:37:07.381Z,7.13
2017-02-22T04:38:07.589Z,7.13
2017-02-22T04:39:07.359Z,7.19
2017-02-22T04:40:07.351Z,7.18
2017-02-22T04:41:07.656Z,7.26
2017-02-22T04:42:07.330Z,7.19
2017-02-22T04:43:07.323Z,7.08
2017-02-22T04:44:07.675Z,7.16
2017-02-22T04:45:07.304Z,7.23
2017-02-22T04:46:07.274Z,7.26
2017-02-22T04:47:07.637Z,7.22
2017-02-22T04:48:07.266Z,7.23
2017-02-22T04:49:07.240Z,7.27
2017-02-22T04:50:07.789Z,7.18
2017-02-22T04:51:06.834Z,7.15
2017-02-22T04:52:07.245Z,7.16
2017-02-22T04:53:07.609Z,7.22
2017-02-22T04:54:07.194Z,7.23
2017-02-22T04:55:07.180Z,7.26
2017-02-22T04:56:06.968Z,7.29
2017-02-22T04:57:07.170Z,7.23
2017-02-22T04:58:07.158Z,7.27
2017-02-22T04:59:07.059Z,7.23
2017-02-22T05:00:07.135Z,7.34
2017-02-22T05:01:07.112Z,7.26
2017-02-22T05:02:07.610Z,7.3
2017-02-22T05:03:07.091Z,7.34
2017-02-22T05:04:07.085Z,7.36
2017-02-22T05:05:07.111Z,7.29
2017-02-22T05:06:07.072Z,7.34
2017-02-22T05:07:07.049Z,7.31
2017-02-22T05:08:07.032Z,7.36
2017-02-22T05:09:06.633Z,7.36
2017-02-22T05:10:07.038Z,7.34
2017-02-22T05:11:07.015Z,7.36
2017-02-22T05:12:06.990Z,7.37
2017-02-22T05:13:06.999Z,7.36
2017-02-22T05:14:06.968Z,7.39
2017-02-22T05:15:06.975Z,7.39
2017-02-22T05:16:06.943Z,7.36
2017-02-22T05:17:06.929Z,7.36
2017-02-22T05:18:06.927Z,7.36
2017-02-22T05:19:06.921Z,7.39
2017-02-22T05:20:06.905Z,7.34
2017-02-22T05:21:06.893Z,7.36
2017-02-22T05:22:06.871Z,7.29
2017-02-22T05:23:06.891Z,7.31
2017-02-22T05:24:06.852Z,7.39
2017-02-22T05:25:06.842Z,7.4
2017-02-22T05:26:06.825Z,7.4
2017-02-22T05:27:06.828Z,7.33
2017-02-22T05:28:06.809Z,7.4
2017-02-22T05:29:06.802Z,7.51
2017-02-22T05:30:06.786Z,7.44
2017-02-22T05:31:06.772Z,7.39
2017-02-22T05:32:06.762Z,7.44
2017-02-22T05:33:06.756Z,7.39
2017-02-22T05:34:06.737Z,7.39
2017-02-22T05:35:06.734Z,7.39
2017-02-22T05:36:06.720Z,7.3
2017-02-22T05:37:06.722Z,7.4
2017-02-22T05:38:06.703Z,7.41
2017-02-22T05:39:06.678Z,7.39
2017-02-22T05:40:06.672Z,7.47
2017-02-22T05:41:06.275Z,7.45
2017-02-22T05:42:06.663Z,7.45
2017-02-22T05:43:06.243Z,7.45
2017-02-22T05:44:06.624Z,7.44
2017-02-22T05:45:06.630Z,7.47
2017-02-22T05:46:06.604Z,7.48
2017-02-22T05:47:06.604Z,7.39
2017-02-22T05:48:06.581Z,7.45
2017-02-22T05:49:06.573Z,7.41
2017-02-22T05:50:06.570Z,7.44
2017-02-22T05:51:06.554Z,7.47
2017-02-22T05:52:06.562Z,7.45
2017-02-22T05:53:06.523Z,7.51
2017-02-22T05:54:06.520Z,7.48
2017-02-22T05:55:06.511Z,7.47
2017-02-22T05:56:06.506Z,7.45
2017-02-22T05:57:06.485Z,7.45
2017-02-22T05:58:06.466Z,7.41
2017-02-22T05:59:06.460Z,7.51
2017-02-22T06:00:06.449Z,7.49
2017-02-22T06:01:06.451Z,7.51
2017-02-22T06:02:06.427Z,7.51
2017-02-22T06:03:06.441Z,7.51
2017-02-22T06:04:06.411Z,7.48
2017-02-22T06:05:06.391Z,7.51
2017-02-22T06:06:06.380Z,7.52
2017-02-22T06:07:06.374Z,7.52
2017-02-22T06:08:05.975Z,7.52
2017-02-22T06:09:06.349Z,7.49
2017-02-22T06:10:06.336Z,7.49
2017-02-22T06:11:06.337Z,7.61
2017-02-22T06:12:06.329Z,7.52
2017-02-22T06:13:05.920Z,7.59
2017-02-22T06:14:06.315Z,7.59
2017-02-22T06:15:05.893Z,7.56
2017-02-22T06:16:06.275Z,7.56
2017-02-22T06:17:06.257Z,7.59
2017-02-22T06:18:06.255Z,7.58
2017-02-22T06:19:06.250Z,7.67
2017-02-22T06:20:06.223Z,7.55
2017-02-22T06:21:06.214Z,7.56
2017-02-22T06:22:06.210Z,7.63
2017-02-22T06:23:06.194Z,7.64
2017-02-22T06:24:06.191Z,7.61
2017-02-22T06:25:06.180Z,7.7
2017-02-22T06:26:06.186Z,7.68
2017-02-22T06:27:06.151Z,7.77
2017-02-22T06:28:06.143Z,7.78
2017-02-22T06:29:06.135Z,7.73
2017-02-22T06:30:06.133Z,7.77
2017-02-22T06:31:05.723Z,7.82
2017-02-22T06:32:05.696Z,7.78
2017-02-22T06:33:06.094Z,7.82
2017-02-22T06:34:06.079Z,7.83
2017-02-22T06:35:06.088Z,7.78
2017-02-22T06:36:06.051Z,7.8
2017-02-22T06:37:05.658Z,7.82
2017-02-22T06:38:06.033Z,7.78
2017-02-22T06:39:06.017Z,7.86
2017-02-22T06:40:05.614Z,7.89
2017-02-22T06:41:06.008Z,7.89
2017-02-22T06:42:05.608Z,7.89
2017-02-22T06:43:05.978Z,7.92
2017-02-22T06:44:05.993Z,7.88
2017-02-22T06:45:05.556Z,7.92
2017-02-22T06:46:05.954Z,7.95
2017-02-22T06:47:05.927Z,7.96
2017-02-22T06:48:05.946Z,7.98
2017-02-22T06:49:05.922Z,7.99
2017-02-22T06:50:05.900Z,7.96
2017-02-22T06:51:05.891Z,8.03
2017-02-22T06:52:05.888Z,7.96
2017-02-22T06:53:05.866Z,7.96
2017-02-22T06:54:05.860Z,8.09
2017-02-22T06:55:05.878Z,8.04
2017-02-22T06:56:05.837Z,8.07
2017-02-22T06:57:05.823Z,8.09
2017-02-22T06:58:05.812Z,8.03
2017-02-22T06:59:05.801Z,8.06
2017-02-22T07:00:05.791Z,8.04
2017-02-22T07:01:05.788Z,8.04
2017-02-22T07:02:05.774Z,8.1
2017-02-22T07:03:05.759Z,8.1
2017-02-22T07:04:05.776Z,7.99
2017-02-22T07:05:05.743Z,8.01
2017-02-22T07:06:05.729Z,8.09
2017-02-22T07:07:05.724Z,8.13
2017-02-22T07:08:05.706Z,8.14
2017-02-22T07:09:05.700Z,8.13
2017-02-22T07:10:05.707Z,8.13
2017-02-22T07:11:05.676Z,8.07
2017-02-22T07:12:05.664Z,8.14
2017-02-22T07:13:05.657Z,8.13
2017-02-22T07:14:05.648Z,8.14
2017-02-22T07:15:05.634Z,8.11
2017-02-22T07:16:05.622Z,8.01
2017-02-22T07:17:05.615Z,8.1
2017-02-22T07:18:05.600Z,8.16
2017-02-22T07:19:05.591Z,8.24
2017-02-22T07:20:05.188Z,8.13
2017-02-22T07:21:05.578Z,8.17
2017-02-22T07:22:05.567Z,8.17
2017-02-22T07:23:05.548Z,8.22
2017-02-22T07:24:05.557Z,8.29
2017-02-22T07:25:05.526Z,8.19
2017-02-22T07:26:05.520Z,8.34
2017-02-22T07:27:05.512Z,8.24
2017-02-22T07:28:05.530Z,8.22
2017-02-22T07:29:05.484Z,8.34
2017-02-22T07:30:05.478Z,8.16
2017-02-22T07:31:05.471Z,8.09
2017-02-22T07:32:05.460Z,8.19
2017-02-22T07:33:05.442Z,8.1
2017-02-22T07:34:05.449Z,8.17
2017-02-22T07:35:05.428Z,8.14
2017-02-22T07:36:05.412Z,8.16
2017-02-22T07:37:05.024Z,8.13
2017-02-22T07:38:05.392Z,8.11
2017-02-22T07:39:05.382Z,8.21
2017-02-22T07:40:05.375Z,8.16
2017-02-22T07:41:05.360Z,8.34
2017-02-22T07:42:05.347Z,8.22
2017-02-22T07:43:05.348Z,8.28
2017-02-22T07:44:05.327Z,8.35
2017-02-22T07:45:05.336Z,8.36
2017-02-22T07:46:05.309Z,8.31
2017-02-22T07:47:05.299Z,8.39
2017-02-22T07:48:05.300Z,8.35
2017-02-22T07:49:05.281Z,8.35
2017-02-22T07:50:05.277Z,8.4
2017-02-22T07:51:05.268Z,8.5
2017-02-22T07:52:05.248Z,8.47
2017-02-22T07:53:05.245Z,8.58
2017-02-22T07:54:05.238Z,8.67
2017-02-22T07:55:05.222Z,8.67
2017-02-22T07:56:05.205Z,8.74
2017-02-22T07:57:05.196Z,8.8
2017-02-22T07:58:05.195Z,8.79
2017-02-22T07:59:05.178Z,8.9
2017-02-22T08:00:05.188Z,8.97
2017-02-22T08:01:05.161Z,8.97
2017-02-22T08:02:05.147Z,8.97
2017-02-22T08:03:05.151Z,9.08
2017-02-22T08:04:05.139Z,9.08
2017-02-22T08:05:05.134Z,9.16
2017-02-22T08:06:05.121Z,9.21
2017-02-22T08:07:05.108Z,9.19
2017-02-22T08:08:05.109Z,9.23
2017-02-22T08:09:05.103Z,9.17
2017-02-22T08:10:05.081Z,9.26
2017-02-22T08:11:05.072Z,9.35
2017-02-22T08:12:05.065Z,9.34
2017-02-22T08:13:05.047Z,9.35
2017-02-22T08:14:05.036Z,9.37
2017-02-22T08:15:05.021Z,9.29
2017-02-22T08:16:05.027Z,9.29
2017-02-22T08:17:05.015Z,9.17
2017-02-22T08:18:04.993Z,9.2
2017-02-22T08:19:04.998Z,9.39
2017-02-22T08:20:04.983Z,9.34
2017-02-22T08:21:04.981Z,9.27
2017-02-22T08:22:04.966Z,9.32
2017-02-22T08:23:04.953Z,9.44
2017-02-22T08:24:04.949Z,9.45
2017-02-22T08:25:04.948Z,9.55
2017-02-22T08:26:04.952Z,9.44
2017-02-22T08:27:04.931Z,9.55
2017-02-22T08:28:04.902Z,9.48
2017-02-22T08:29:04.892Z,9.6
2017-02-22T08:30:04.885Z,9.6
2017-02-22T08:31:04.887Z,9.48
2017-02-22T08:32:04.883Z,9.5
2017-02-22T08:33:04.877Z,9.42
2017-02-22T08:34:04.850Z,9.34
2017-02-22T08:35:04.843Z,9.29
2017-02-22T08:36:04.832Z,9.2
2017-02-22T08:37:04.822Z,9.19
2017-02-22T08:38:04.815Z,9.03
2017-02-22T08:39:04.809Z,9
2017-02-22T08:40:04.812Z,9.08
2017-02-22T08:41:04.793Z,8.98
2017-02-22T08:42:04.779Z,9.01
2017-02-22T08:43:04.764Z,9
2017-02-22T08:44:04.795Z,9.01
2017-02-22T08:45:04.754Z,8.94
2017-02-22T08:46:04.738Z,8.82
2017-02-22T08:47:04.760Z,8.8
2017-02-22T08:48:04.327Z,8.74
2017-02-22T08:49:04.733Z,8.71
2017-02-22T08:50:04.729Z,8.68
2017-02-22T08:51:04.698Z,8.68
2017-02-22T08:52:04.688Z,8.52
2017-02-22T08:53:04.680Z,8.6
2017-02-22T08:54:04.665Z,8.61
2017-02-22T08:55:04.660Z,8.49
2017-02-22T08:56:04.645Z,8.52
2017-02-22T08:57:04.630Z,8.49
2017-02-22T08:58:04.630Z,8.47
2017-02-22T08:59:04.614Z,8.4
2017-02-22T09:00:04.608Z,8.39
2017-02-22T09:01:04.605Z,8.47
2017-02-22T09:02:04.584Z,8.5
2017-02-22T09:03:04.578Z,8.5
2017-02-22T09:04:04.593Z,8.47
2017-02-22T09:05:04.582Z,8.44
2017-02-22T09:06:04.548Z,8.47
2017-02-22T09:07:04.537Z,8.47
2017-02-22T09:08:04.530Z,8.46
2017-02-22T09:09:04.132Z,8.5
2017-02-22T09:10:04.111Z,8.5
2017-02-22T09:11:04.507Z,8.47
2017-02-22T09:12:04.490Z,8.47
2017-02-22T09:13:04.479Z,8.47
2017-02-22T09:14:04.479Z,8.49
2017-02-22T09:15:04.463Z,8.46
2017-02-22T09:16:04.444Z,8.58
2017-02-22T09:17:04.440Z,8.53
2017-02-22T09:18:04.428Z,8.64
2017-02-22T09:19:04.424Z,8.6
2017-02-22T09:20:04.013Z,8.58
2017-02-22T09:21:04.412Z,8.62
2017-02-22T09:22:04.397Z,8.67
2017-02-22T09:23:04.398Z,8.6
2017-02-22T09:24:04.381Z,8.6
2017-02-22T09:25:04.369Z,8.62
2017-02-22T09:26:04.352Z,8.61
2017-02-22T09:27:04.335Z,8.62
2017-02-22T09:28:04.327Z,8.58
2017-02-22T09:29:04.317Z,8.58
2017-02-22T09:30:04.320Z,8.58
2017-02-22T09:31:04.299Z,8.49
2017-02-22T09:32:04.287Z,8.44
2017-02-22T09:33:04.310Z,8.39
2017-02-22T09:34:04.273Z,8.42
2017-02-22T09:35:04.257Z,8.31
2017-02-22T09:36:04.260Z,8.31
2017-02-22T09:37:04.248Z,8.32
2017-02-22T09:38:04.230Z,8.35
2017-02-22T09:39:04.229Z,8.28
2017-02-22T09:40:04.207Z,8.42
2017-02-22T09:41:04.212Z,8.44
2017-02-22T09:42:04.197Z,8.49
2017-02-22T09:43:04.174Z,8.47
2017-02-22T09:44:04.180Z,8.58
2017-02-22T09:45:04.160Z,8.6
2017-02-22T09:46:04.165Z,8.67
2017-02-22T09:47:04.142Z,8.67
2017-02-22T09:48:04.128Z,8.69
2017-02-22T09:49:04.118Z,8.67
2017-02-22T09:50:04.146Z,8.67
2017-02-22T09:51:04.108Z,8.69
2017-02-22T09:52:04.098Z,8.71
2017-02-22T09:53:03.679Z,8.72
2017-02-22T09:54:04.114Z,8.85
2017-02-22T09:55:04.059Z,8.86
2017-02-22T09:56:04.044Z,8.8
2017-02-22T09:57:04.054Z,8.85
2017-02-22T09:58:04.051Z,8.79
2017-02-22T09:59:04.015Z,8.89
2017-02-22T10:00:04.010Z,8.83
2017-02-22T10:01:04.002Z,8.8
2017-02-22T10:02:03.989Z,8.83
2017-02-22T10:03:03.990Z,8.77
2017-02-22T10:04:03.980Z,8.89
2017-02-22T10:05:03.969Z,8.89
2017-02-22T10:06:03.979Z,9
2017-02-22T10:07:03.948Z,9.03
2017-02-22T10:08:03.932Z,9.03
2017-02-22T10:09:03.922Z,8.98
2017-02-22T10:10:03.913Z,9.03
2017-02-22T10:11:03.897Z,9.11
2017-02-22T10:12:03.892Z,8.97
2017-02-22T10:13:03.909Z,9.01
2017-02-22T10:14:03.883Z,9.05
2017-02-22T10:15:03.883Z,9.04
2017-02-22T10:16:03.070Z,8.98
2017-02-22T10:17:03.851Z,9.04
2017-02-22T10:18:03.834Z,9.03
2017-02-22T10:19:03.829Z,8.94
2017-02-22T10:20:03.821Z,8.98
2017-02-22T10:21:03.814Z,8.94
2017-02-22T10:22:03.830Z,8.94
2017-02-22T10:23:03.387Z,8.82
2017-02-22T10:24:03.777Z,8.86
2017-02-22T10:25:03.767Z,8.89
2017-02-22T10:26:03.831Z,8.76
2017-02-22T10:27:03.746Z,8.71
2017-02-22T10:28:03.742Z,8.68
2017-02-22T10:29:03.356Z,8.62
2017-02-22T10:30:03.734Z,8.67
2017-02-22T10:31:03.319Z,8.64
2017-02-22T10:32:03.709Z,8.62
2017-02-22T10:33:03.288Z,8.53
2017-02-22T10:34:03.676Z,8.61
2017-02-22T10:35:03.275Z,8.54
2017-02-22T10:36:03.681Z,8.52
2017-02-22T10:37:03.252Z,8.47
2017-02-22T10:38:03.647Z,8.49
2017-02-22T10:39:03.235Z,8.42
2017-02-22T10:40:03.618Z,8.43
2017-02-22T10:41:03.260Z,8.43
2017-02-22T10:42:03.598Z,8.39
2017-02-22T10:43:03.217Z,8.4
2017-02-22T10:44:03.190Z,8.47
2017-02-22T10:45:03.167Z,8.47
2017-02-22T10:46:03.172Z,8.49
2017-02-22T10:47:03.151Z,8.47
2017-02-22T10:48:03.540Z,8.43
2017-02-22T10:49:03.540Z,8.42
2017-02-22T10:50:03.132Z,8.47
2017-02-22T10:51:03.511Z,8.44
2017-02-22T10:52:03.498Z,8.39
2017-02-22T10:53:03.501Z,8.49
2017-02-22T10:54:03.485Z,8.47
2017-02-22T10:55:03.477Z,8.47
2017-02-22T10:56:03.464Z,8.5
2017-02-22T10:57:03.051Z,8.52
2017-02-22T10:58:03.447Z,8.46
2017-02-22T10:59:03.426Z,8.42
2017-02-22T11:00:03.016Z,8.44
2017-02-22T11:01:03.426Z,8.49
2017-02-22T11:02:03.410Z,8.47
2017-02-22T11:03:03.384Z,8.47
2017-02-22T11:04:03.419Z,8.44
2017-02-22T11:05:03.408Z,8.49
2017-02-22T11:06:03.360Z,8.47
2017-02-22T11:07:03.355Z,8.4
2017-02-22T11:08:03.341Z,8.42
2017-02-22T11:09:03.342Z,8.42
2017-02-22T11:10:03.331Z,8.32
2017-02-22T11:11:03.306Z,8.42
2017-02-22T11:12:03.305Z,8.29
2017-02-22T11:13:03.289Z,8.31
2017-02-22T11:14:03.285Z,8.35
2017-02-22T11:15:02.879Z,8.4
2017-02-22T11:16:03.256Z,8.35
2017-02-22T11:17:03.249Z,8.35
2017-02-22T11:18:03.243Z,8.31
2017-02-22T11:19:03.227Z,8.28
2017-02-22T11:20:03.231Z,8.32
2017-02-22T11:21:02.817Z,8.22
2017-02-22T11:22:03.200Z,8.25
2017-02-22T11:23:03.189Z,8.31
2017-02-22T11:24:03.186Z,8.16
2017-02-22T11:25:03.165Z,8.21
2017-02-22T11:26:03.172Z,8.16
2017-02-22T11:27:03.151Z,8.14
2017-02-22T11:28:03.136Z,8.21
2017-02-22T11:29:03.134Z,8.24
2017-02-22T11:30:03.121Z,8.24
2017-02-22T11:31:03.125Z,8.1
2017-02-22T11:32:02.729Z,8.22
2017-02-22T11:33:03.103Z,8.07
2017-02-22T11:34:03.086Z,8.19
2017-02-22T11:35:03.064Z,8.19
2017-02-22T11:36:03.062Z,8.14
2017-02-22T11:37:03.050Z,8.01
2017-02-22T11:38:03.049Z,8.1
2017-02-22T11:39:03.027Z,8.09
2017-02-22T11:40:03.017Z,8.07
2017-02-22T11:41:03.002Z,7.96
2017-02-22T11:42:02.989Z,8.03
2017-02-22T11:43:02.598Z,8.01
2017-02-22T11:44:02.978Z,8.03
2017-02-22T11:45:02.957Z,7.99
2017-02-22T11:46:02.968Z,7.95
2017-02-22T11:47:02.948Z,7.95
2017-02-22T11:48:02.931Z,7.88
2017-02-22T11:49:02.917Z,7.93
2017-02-22T11:50:02.914Z,7.93
2017-02-22T11:51:02.913Z,7.89
2017-02-22T11:52:02.888Z,7.93
2017-02-22T11:53:02.877Z,7.92
2017-02-22T11:54:02.901Z,7.88
2017-02-22T11:55:02.871Z,7.85
2017-02-22T11:56:02.847Z,7.93
2017-02-22T11:57:02.833Z,7.92
2017-02-22T11:58:02.826Z,7.88
2017-02-22T11:59:02.819Z,7.85
2017-02-22T12:00:02.813Z,7.85
2017-02-22T12:01:02.804Z,7.78
2017-02-22T12:02:02.803Z,7.82
2017-02-22T12:03:02.769Z,7.8
2017-02-22T12:04:02.772Z,7.85
2017-02-22T12:05:02.758Z,7.78
2017-02-22T12:06:02.749Z,7.83
2017-02-22T12:07:02.731Z,7.8
2017-02-22T12:08:02.730Z,7.77
2017-02-22T12:09:02.719Z,7.8
2017-02-22T12:10:02.717Z,7.77
2017-02-22T12:11:02.691Z,7.77
2017-02-22T12:12:02.687Z,7.78
2017-02-22T12:13:02.665Z,7.86
2017-02-22T12:14:02.669Z,7.95
2017-02-22T12:15:02.647Z,7.93
2017-02-22T12:16:02.631Z,7.88
2017-02-22T12:17:02.634Z,7.95
2017-02-22T12:18:02.620Z,7.89
2017-02-22T12:19:02.601Z,7.91
2017-02-22T12:20:02.623Z,7.93
2017-02-22T12:21:02.595Z,7.98
2017-02-22T12:22:02.571Z,8.03
2017-02-22T12:23:02.561Z,7.98
2017-02-22T12:24:02.159Z,7.99
2017-02-22T12:25:02.150Z,7.99
2017-02-22T12:26:02.526Z,8.01
2017-02-22T12:27:02.517Z,7.96
2017-02-22T12:28:02.513Z,7.98
2017-02-22T12:29:02.506Z,8.03
2017-02-22T12:30:02.500Z,7.95
2017-02-22T12:31:02.102Z,7.96
2017-02-22T12:32:02.069Z,8.01
2017-02-22T12:33:02.459Z,7.93
2017-02-22T12:34:02.049Z,8.01
2017-02-22T12:35:02.048Z,7.99
2017-02-22T12:36:02.024Z,8.03
2017-02-22T12:37:02.019Z,7.99
2017-02-22T12:38:02.408Z,7.96
2017-02-22T12:39:02.390Z,7.99
2017-02-22T12:40:02.411Z,8.03
2017-02-22T12:41:02.369Z,8.06
2017-02-22T12:42:02.371Z,7.96
2017-02-22T12:43:02.361Z,7.99
2017-02-22T12:44:02.337Z,7.99
2017-02-22T12:45:02.339Z,8.14
2017-02-22T12:46:02.320Z,8.04
2017-02-22T12:47:02.305Z,7.99
2017-02-22T12:48:02.310Z,8.07
2017-02-22T12:49:02.298Z,8.04
2017-02-22T12:50:02.277Z,8.11
2017-02-22T12:51:02.267Z,8.1
2017-02-22T12:52:02.254Z,8.1
2017-02-22T12:53:02.248Z,8.1
2017-02-22T12:54:01.868Z,8.1
2017-02-22T12:55:02.232Z,8.09
2017-02-22T12:56:02.216Z,8.09
2017-02-22T12:57:02.218Z,8.1
2017-02-22T12:58:02.201Z,8.14
2017-02-22T12:59:02.181Z,8.09
2017-02-22T13:00:02.194Z,8.07
2017-02-22T13:01:01.772Z,8.11
2017-02-22T13:02:02.161Z,8.1
2017-02-22T13:03:02.141Z,8.13
2017-02-22T13:04:02.143Z,8.1
2017-02-22T13:05:02.120Z,8.07
2017-02-22T13:06:02.115Z,8.1
2017-02-22T13:07:02.115Z,8.06
2017-02-22T13:08:01.692Z,8.03
2017-02-22T13:09:02.084Z,7.99
2017-02-22T13:10:02.066Z,8.01
2017-02-22T13:11:02.060Z,7.95
2017-02-22T13:12:02.047Z,7.95
2017-02-22T13:13:02.044Z,7.92
2017-02-22T13:14:02.033Z,7.78
2017-02-22T13:15:02.035Z,7.77
2017-02-22T13:16:01.606Z,7.82
2017-02-22T13:17:01.993Z,7.82
2017-02-22T13:18:01.976Z,7.83
2017-02-22T13:19:01.573Z,7.85
2017-02-22T13:20:01.958Z,7.77
2017-02-22T13:21:01.960Z,7.82